createdAt,value
2019-03-23T00:02:15.503Z,12.20
2019-03-23T00:04:44.116Z,10.47
2019-03-23T00:07:12.791Z,10.37
2019-03-23T00:12:15.864Z,11.23
2019-03-23T00:14:44.575Z,9.93
2019-03-23T00:17:32.449Z,9.27
2019-03-23T00:20:01.078Z,10.77
2019-03-23T00:22:29.659Z,9.97
2019-03-23T00:24:58.344Z,9.73
2019-03-23T00:27:27.045Z,10.27
2019-03-23T00:29:55.704Z,10.70
2019-03-23T00:32:36.753Z,9.63
2019-03-23T00:35:45.171Z,10.60
2019-03-23T00:38:13.857Z,9.70
2019-03-23T00:40:42.480Z,9.63
2019-03-23T00:43:30.351Z,9.33
2019-03-23T00:45:59.046Z,9.70
2019-03-23T00:48:27.819Z,10.47
2019-03-23T00:50:56.427Z,10.57
2019-03-23T00:53:25.006Z,10.83
2019-03-23T00:55:53.689Z,8.90
2019-03-23T00:58:22.334Z,9.30
2019-03-23T01:01:10.767Z,8.93
2019-03-23T01:03:39.473Z,10.57
2019-03-23T01:06:27.300Z,7.60
2019-03-23T01:08:55.986Z,10.20
2019-03-23T01:11:43.823Z,8.73
2019-03-23T01:14:31.711Z,9.53
2019-03-23T01:17:00.275Z,9.33
2019-03-23T01:19:28.981Z,8.97
2019-03-23T01:21:57.834Z,9.30
2019-03-23T01:24:26.331Z,9.80
2019-03-23T01:29:49.567Z,9.60
2019-03-23T01:32:18.187Z,9.97
2019-03-23T01:34:46.879Z,10.33
2019-03-23T01:37:34.703Z,9.73
2019-03-23T01:43:16.986Z,11.10
2019-03-23T01:46:04.930Z,10.27
2019-03-23T01:48:33.695Z,8.60
2019-03-23T01:51:02.449Z,11.50
2019-03-23T01:53:50.316Z,9.73
2019-03-23T01:56:38.189Z,11.03
2019-03-23T01:59:26.064Z,9.67
2019-03-23T02:01:54.688Z,12.70
2019-03-23T02:04:42.477Z,11.63
2019-03-23T02:07:30.327Z,11.80
2019-03-23T02:10:18.176Z,11.83
2019-03-23T02:12:46.828Z,12.33
2019-03-23T02:15:15.568Z,12.80
2019-03-23T02:17:44.261Z,12.83
2019-03-23T02:20:52.732Z,12.87
2019-03-23T02:23:21.417Z,12.37
2019-03-23T02:26:09.112Z,12.53
2019-03-23T02:31:31.258Z,15.83
2019-03-23T02:33:59.862Z,15.17
2019-03-23T02:36:47.745Z,12.73
2019-03-23T02:39:16.312Z,12.90
2019-03-23T02:41:45.065Z,13.90
2019-03-23T02:44:33.003Z,14.83
2019-03-23T02:49:42.514Z,13.43
2019-03-23T02:52:30.417Z,13.57
2019-03-23T02:54:59.099Z,13.63
2019-03-23T02:57:27.949Z,12.97
2019-03-23T02:59:56.604Z,13.47
2019-03-23T03:02:25.311Z,12.97
2019-03-23T03:05:13.209Z,12.83
2019-03-23T03:07:43.524Z,14.00
2019-03-23T03:10:52.179Z,14.20
2019-03-23T03:13:35.181Z,13.80
2019-03-23T03:16:10.771Z,12.87
2019-03-23T03:18:39.474Z,13.93
2019-03-23T03:21:08.049Z,14.73
2019-03-23T03:24:16.533Z,14.63
2019-03-23T03:26:45.182Z,14.67
2019-03-23T03:29:33.081Z,13.83
2019-03-23T03:32:01.718Z,13.50
2019-03-23T03:34:30.395Z,12.67
2019-03-23T03:37:18.442Z,13.13
2019-03-23T03:40:07.379Z,14.27
2019-03-23T03:46:09.204Z,13.10
2019-03-23T03:48:38.661Z,13.83
2019-03-23T03:51:26.746Z,15.03
2019-03-23T03:54:14.651Z,14.03
2019-03-23T03:59:32.269Z,14.40
2019-03-23T04:04:36.930Z,13.93
2019-03-23T04:07:05.860Z,13.03
2019-03-23T04:12:29.519Z,14.77
2019-03-23T04:14:58.144Z,14.50
2019-03-23T04:17:26.832Z,15.33
2019-03-23T04:19:55.402Z,13.47
2019-03-23T04:22:24.047Z,15.10
2019-03-23T04:25:12.282Z,16.23
2019-03-23T04:27:40.955Z,12.80
2019-03-23T04:30:49.388Z,15.33
2019-03-23T04:33:37.249Z,14.70
2019-03-23T04:36:25.097Z,14.43
2019-03-23T04:39:12.931Z,15.27
2019-03-23T04:41:41.619Z,14.10
2019-03-23T04:44:10.328Z,15.03
2019-03-23T04:46:39.483Z,14.37
2019-03-23T04:49:08.165Z,15.03
2019-03-23T04:51:56.138Z,13.90
2019-03-23T04:54:44.120Z,14.03
2019-03-23T04:57:12.813Z,14.43
2019-03-23T04:59:43.166Z,14.07
2019-03-23T05:05:47.833Z,15.00
2019-03-23T05:08:16.566Z,14.07
2019-03-23T05:13:40.405Z,16.20
2019-03-23T05:16:28.278Z,14.77
2019-03-23T05:18:56.815Z,14.60
2019-03-23T05:21:44.650Z,15.33
2019-03-23T05:24:32.441Z,14.27
2019-03-23T05:27:01.182Z,13.67
2019-03-23T05:29:29.838Z,15.00
2019-03-23T05:34:33.376Z,13.90
2019-03-23T05:37:02.214Z,14.03
2019-03-23T05:40:10.812Z,13.60
2019-03-23T05:42:58.640Z,13.47
2019-03-23T05:45:46.516Z,13.17
2019-03-23T05:48:15.106Z,14.30
2019-03-23T05:50:43.861Z,14.87
2019-03-23T05:53:31.673Z,14.33
2019-03-23T05:56:00.385Z,13.57
2019-03-23T05:58:48.101Z,13.70
2019-03-23T06:01:36.049Z,14.83
2019-03-23T06:06:59.781Z,14.53
2019-03-23T06:09:28.408Z,15.00
2019-03-23T06:11:56.976Z,14.90
2019-03-23T06:14:25.595Z,15.50
2019-03-23T06:17:13.502Z,15.57
2019-03-23T06:19:42.156Z,15.57
2019-03-23T06:22:10.807Z,14.83
2019-03-23T06:28:47.027Z,13.30
2019-03-23T06:31:15.713Z,12.57
2019-03-23T06:34:03.540Z,13.53
2019-03-23T06:36:32.115Z,14.27
2019-03-23T06:39:19.898Z,14.23
2019-03-23T06:41:48.561Z,12.83
2019-03-23T06:44:18.415Z,14.80
2019-03-23T06:46:47.488Z,15.10
2019-03-23T06:49:36.013Z,13.20
2019-03-23T06:52:23.929Z,13.00
2019-03-23T06:54:52.547Z,12.90
2019-03-23T06:57:21.202Z,11.70
2019-03-23T07:00:08.946Z,11.93
2019-03-23T07:02:37.593Z,13.70
2019-03-23T07:05:46.072Z,13.67
2019-03-23T07:08:14.647Z,12.13
2019-03-23T07:10:43.361Z,14.07
2019-03-23T07:13:11.927Z,13.97
2019-03-23T07:15:59.775Z,13.37
2019-03-23T07:18:47.664Z,14.50
2019-03-23T07:21:35.544Z,12.77
2019-03-23T07:24:04.382Z,13.67
2019-03-23T07:26:32.986Z,15.50
2019-03-23T07:29:01.565Z,15.93
2019-03-23T07:31:30.202Z,15.23
2019-03-23T07:34:17.946Z,16.27
2019-03-23T07:36:46.633Z,14.30
2019-03-23T07:39:15.211Z,14.30
2019-03-23T07:42:03.155Z,13.93
2019-03-23T07:44:50.991Z,15.23
2019-03-23T07:47:19.670Z,14.90
2019-03-23T07:49:48.326Z,13.57
2019-03-23T07:52:16.953Z,14.87
2019-03-23T07:54:45.454Z,15.30
2019-03-23T07:57:33.339Z,15.07
2019-03-23T08:00:21.176Z,14.27
2019-03-23T08:03:09.050Z,13.93
2019-03-23T08:05:37.729Z,15.40
2019-03-23T08:08:06.415Z,15.37
2019-03-23T08:11:14.913Z,15.93
2019-03-23T08:14:23.333Z,14.50
2019-03-23T08:16:51.953Z,12.87
2019-03-23T08:19:20.482Z,13.37
2019-03-23T08:22:08.354Z,15.70
2019-03-23T08:24:56.065Z,14.73
2019-03-23T08:27:24.765Z,13.73
2019-03-23T08:29:53.351Z,15.93
2019-03-23T08:32:41.096Z,14.57
2019-03-23T08:35:09.826Z,15.67
2019-03-23T08:37:38.408Z,15.07
2019-03-23T08:43:00.772Z,14.80
2019-03-23T08:45:29.431Z,13.57
2019-03-23T08:47:58.120Z,13.30
2019-03-23T08:53:14.319Z,14.07
2019-03-23T08:55:42.877Z,13.97
2019-03-23T08:58:11.571Z,14.57
2019-03-23T09:00:40.235Z,13.87
2019-03-23T09:03:28.096Z,14.13
2019-03-23T09:06:15.982Z,16.33
2019-03-23T09:12:12.266Z,15.17
2019-03-23T09:14:40.774Z,14.93
2019-03-23T09:17:28.574Z,14.70
2019-03-23T09:20:16.407Z,15.27
2019-03-23T09:22:44.954Z,14.97
2019-03-23T09:25:13.603Z,14.50
2019-03-23T09:27:42.288Z,15.37
2019-03-23T09:30:50.778Z,14.80
2019-03-23T09:33:38.658Z,13.17
2019-03-23T09:36:26.601Z,15.30
2019-03-23T09:38:55.288Z,16.97
2019-03-23T09:41:43.156Z,16.87
2019-03-23T09:44:11.868Z,13.00
2019-03-23T09:46:40.511Z,15.47
2019-03-23T09:49:09.161Z,15.40
2019-03-23T09:51:57.115Z,16.33
2019-03-23T09:54:25.742Z,16.97
2019-03-23T09:57:13.581Z,15.43
2019-03-23T10:00:01.469Z,15.70
2019-03-23T10:02:49.211Z,14.10
2019-03-23T10:05:37.059Z,17.10
2019-03-23T10:08:24.878Z,14.67
2019-03-23T10:11:12.766Z,15.77
2019-03-23T10:14:00.470Z,15.63
2019-03-23T10:16:29.180Z,16.50
2019-03-23T10:19:17.041Z,15.90
2019-03-23T10:22:04.917Z,15.73
2019-03-23T10:24:52.725Z,16.37
2019-03-23T10:27:21.355Z,16.77
2019-03-23T10:30:09.188Z,17.27
2019-03-23T10:32:37.765Z,16.03
2019-03-23T10:35:46.175Z,16.53
2019-03-23T10:38:33.957Z,16.07
2019-03-23T10:41:21.798Z,16.63
2019-03-23T10:44:09.754Z,16.57
2019-03-23T10:46:38.515Z,16.10
2019-03-23T10:49:26.398Z,17.20
2019-03-23T10:52:14.217Z,15.83
2019-03-23T10:54:42.807Z,17.83
2019-03-23T10:57:30.698Z,17.83
2019-03-23T11:00:18.515Z,17.03
2019-03-23T11:03:06.257Z,17.37
2019-03-23T11:05:54.147Z,15.67
2019-03-23T11:08:22.831Z,16.27
2019-03-23T11:11:10.713Z,17.70
2019-03-23T11:13:58.547Z,16.00
2019-03-23T11:16:46.439Z,16.27
2019-03-23T11:19:14.945Z,16.40
2019-03-23T11:22:02.829Z,15.30
2019-03-23T11:24:50.664Z,14.73
2019-03-23T11:27:38.561Z,15.77
2019-03-23T11:30:46.983Z,15.97
2019-03-23T11:33:34.849Z,15.90
2019-03-23T11:36:22.692Z,16.47
2019-03-23T11:39:10.575Z,14.23
2019-03-23T11:41:58.407Z,17.27
2019-03-23T11:44:46.342Z,15.73
2019-03-23T11:47:14.948Z,14.77
2019-03-23T11:50:02.839Z,15.27
2019-03-23T11:52:50.731Z,15.03
2019-03-23T11:55:38.559Z,16.00
2019-03-23T11:58:07.247Z,14.70
2019-03-23T12:00:35.900Z,13.83
2019-03-23T12:03:04.608Z,14.30
2019-03-23T12:05:33.261Z,15.73
2019-03-23T12:08:21.140Z,14.53
2019-03-23T12:11:09.009Z,14.67
2019-03-23T12:13:56.893Z,15.93
2019-03-23T12:16:44.755Z,15.47
2019-03-23T12:19:32.634Z,17.07
2019-03-23T12:22:20.507Z,16.90
2019-03-23T12:25:08.321Z,15.43
2019-03-23T12:27:36.951Z,16.90
2019-03-23T12:30:45.417Z,15.77
2019-03-23T12:33:14.038Z,16.03
2019-03-23T12:36:01.926Z,16.13
2019-03-23T12:38:49.761Z,17.13
2019-03-23T12:41:37.570Z,14.13
2019-03-23T12:44:06.202Z,14.47
2019-03-23T12:46:54.082Z,13.87
2019-03-23T12:49:41.921Z,14.30
2019-03-23T12:52:29.817Z,14.03
2019-03-23T12:55:17.580Z,14.73
2019-03-23T12:58:05.408Z,15.97
2019-03-23T13:00:53.282Z,15.23
2019-03-23T13:03:21.928Z,14.30
2019-03-23T13:05:50.617Z,14.53
2019-03-23T13:08:38.502Z,15.57
2019-03-23T13:11:07.196Z,15.70
2019-03-23T13:13:55.076Z,16.97
2019-03-23T13:16:42.851Z,16.57
2019-03-23T13:19:30.588Z,17.43
2019-03-23T13:21:59.271Z,14.90
2019-03-23T13:24:47.155Z,14.97
2019-03-23T13:27:35.043Z,14.30
2019-03-23T13:30:43.516Z,13.67
2019-03-23T13:33:31.279Z,14.90
2019-03-23T13:36:19.156Z,14.50
2019-03-23T13:39:07.032Z,14.67
2019-03-23T13:41:54.902Z,14.13
2019-03-23T13:44:42.744Z,14.33
2019-03-23T13:47:30.509Z,14.27
2019-03-23T13:50:18.266Z,14.00
2019-03-23T13:53:06.167Z,14.07
2019-03-23T13:56:14.646Z,14.70
2019-03-23T13:59:02.599Z,14.37
2019-03-23T14:01:50.478Z,14.30
2019-03-23T14:04:19.075Z,14.23
2019-03-23T14:06:47.700Z,15.23
2019-03-23T14:09:35.551Z,16.37
2019-03-23T14:12:04.173Z,15.00
2019-03-23T14:14:52.011Z,15.83
2019-03-23T14:17:39.840Z,13.57
2019-03-23T14:23:22.315Z,13.33
2019-03-23T14:26:10.148Z,14.80
2019-03-23T14:28:58.022Z,15.33
2019-03-23T14:31:45.772Z,15.70
2019-03-23T14:34:14.286Z,15.20
2019-03-23T14:37:02.232Z,14.27
2019-03-23T14:39:31.215Z,15.17
2019-03-23T14:42:05.135Z,14.23
2019-03-23T14:44:31.644Z,15.43
2019-03-23T14:47:00.334Z,16.40
2019-03-23T14:49:48.250Z,15.57
2019-03-23T14:52:36.124Z,14.93
2019-03-23T14:55:44.564Z,16.10
2019-03-23T14:58:13.167Z,15.83
2019-03-23T15:01:01.044Z,16.07
2019-03-23T15:03:29.556Z,17.33
2019-03-23T15:06:17.320Z,17.47
2019-03-23T15:09:05.034Z,18.53
2019-03-23T15:11:52.905Z,19.43
2019-03-23T15:14:40.752Z,16.13
2019-03-23T15:17:28.506Z,17.43
2019-03-23T15:20:16.335Z,15.87
2019-03-23T15:22:45.031Z,16.37
2019-03-23T15:25:13.728Z,15.67
2019-03-23T15:28:01.621Z,16.80
2019-03-23T15:30:50.870Z,17.93
2019-03-23T15:33:20.019Z,16.03
2019-03-23T15:36:07.788Z,17.80
2019-03-23T15:39:16.275Z,19.13
2019-03-23T15:41:44.858Z,18.50
2019-03-23T15:44:32.606Z,20.60
2019-03-23T15:47:20.479Z,17.17
2019-03-23T15:50:08.317Z,17.30
2019-03-23T15:52:56.198Z,17.37
2019-03-23T15:55:44.038Z,19.33
2019-03-23T15:58:31.904Z,22.77
2019-03-23T16:01:19.666Z,17.83
2019-03-23T16:04:07.422Z,16.57
2019-03-23T16:06:56.813Z,18.37
2019-03-23T16:09:44.720Z,17.40
2019-03-23T16:12:34.992Z,16.20
2019-03-23T16:17:55.942Z,16.20
2019-03-23T16:20:43.844Z,17.40
2019-03-23T16:23:31.617Z,20.00
2019-03-23T16:26:19.480Z,17.03
2019-03-23T16:32:15.773Z,15.70
2019-03-23T16:35:03.571Z,15.17
2019-03-23T16:37:51.393Z,15.57
2019-03-23T16:40:19.906Z,16.33
2019-03-23T16:42:48.515Z,17.43
2019-03-23T16:45:17.171Z,15.87
2019-03-23T16:47:45.759Z,18.33
2019-03-23T16:50:14.399Z,18.67
2019-03-23T16:52:42.987Z,16.70
2019-03-23T16:55:11.736Z,15.93
2019-03-23T16:57:40.378Z,16.83
2019-03-23T17:00:47.522Z,13.90
2019-03-23T17:03:16.117Z,13.80
2019-03-23T17:06:04.069Z,16.67
2019-03-23T17:08:51.880Z,15.53
2019-03-23T17:11:39.691Z,15.63
2019-03-23T17:14:08.267Z,16.40
2019-03-23T17:16:36.984Z,17.20
2019-03-23T17:19:24.866Z,15.77
2019-03-23T17:22:12.754Z,17.73
2019-03-23T17:24:41.271Z,17.07
2019-03-23T17:27:29.166Z,16.70
2019-03-23T17:30:16.869Z,14.70
2019-03-23T17:33:04.744Z,15.83
2019-03-23T17:35:52.547Z,16.43
2019-03-23T17:38:40.332Z,14.87
2019-03-23T17:41:28.202Z,14.63
2019-03-23T17:44:16.056Z,15.10
2019-03-23T17:47:04.294Z,15.93
2019-03-23T17:49:52.146Z,16.70
2019-03-23T17:52:20.908Z,16.57
2019-03-23T17:55:08.751Z,16.83
2019-03-23T17:57:56.649Z,16.30
2019-03-23T18:00:25.481Z,17.57
2019-03-23T18:03:13.368Z,16.33
2019-03-23T18:06:01.238Z,17.87
2019-03-23T18:08:49.057Z,17.97
2019-03-23T18:11:36.902Z,16.30
2019-03-23T18:14:45.352Z,18.00
2019-03-23T18:17:33.123Z,16.37
2019-03-23T18:20:20.993Z,16.60
2019-03-23T18:23:08.977Z,16.00
2019-03-23T18:25:56.819Z,17.30
2019-03-23T18:28:44.707Z,16.67
2019-03-23T18:31:32.650Z,17.07
2019-03-23T18:34:01.538Z,17.20
2019-03-23T18:36:30.402Z,17.00
2019-03-23T18:39:18.390Z,17.57
2019-03-23T18:42:06.228Z,15.13
2019-03-23T18:44:54.318Z,16.80
2019-03-23T18:47:42.049Z,17.33
2019-03-23T18:50:29.946Z,14.83
2019-03-23T18:52:58.572Z,13.90
2019-03-23T18:55:27.206Z,14.67
2019-03-23T18:57:57.776Z,14.33
2019-03-23T19:00:45.609Z,13.90
2019-03-23T19:03:54.071Z,12.83
2019-03-23T19:06:22.763Z,14.00
2019-03-23T19:08:51.393Z,12.77
2019-03-23T19:11:20.129Z,14.10
2019-03-23T19:13:48.759Z,12.80
2019-03-23T19:16:17.451Z,12.93
2019-03-23T19:19:05.338Z,13.13
2019-03-23T19:21:53.150Z,13.93
2019-03-23T19:24:40.988Z,14.53
2019-03-23T19:27:28.912Z,14.60
2019-03-23T19:30:16.798Z,14.00
2019-03-23T19:33:06.289Z,15.67
2019-03-23T19:35:35.104Z,15.83
2019-03-23T19:38:22.989Z,14.97
2019-03-23T19:40:59.136Z,13.53
2019-03-23T19:43:49.734Z,14.27
2019-03-23T19:46:36.508Z,14.17
2019-03-23T19:49:24.344Z,14.97
2019-03-23T19:51:52.980Z,14.50
2019-03-23T19:54:21.677Z,14.93
2019-03-23T19:57:09.518Z,15.80
2019-03-23T19:59:57.312Z,12.40
2019-03-23T20:02:25.986Z,12.87
2019-03-23T20:05:14.380Z,14.93
2019-03-23T20:08:02.187Z,13.60
2019-03-23T20:10:49.998Z,13.83
2019-03-23T20:13:37.900Z,13.23
2019-03-23T20:16:06.552Z,14.60
2019-03-23T20:18:35.246Z,13.13
2019-03-23T20:21:23.229Z,14.80
2019-03-23T20:24:11.099Z,16.80
2019-03-23T20:26:58.981Z,13.97
2019-03-23T20:29:27.675Z,13.23
2019-03-23T20:31:56.258Z,12.97
2019-03-23T20:34:44.072Z,14.00
2019-03-23T20:37:31.855Z,12.53
2019-03-23T20:42:34.262Z,12.47
2019-03-23T20:45:22.165Z,13.53
2019-03-23T20:47:50.829Z,12.90
2019-03-23T20:50:38.696Z,12.50
2019-03-23T20:53:07.335Z,12.23
2019-03-23T20:55:35.970Z,12.73
2019-03-23T20:58:23.785Z,13.87
2019-03-23T21:00:52.394Z,11.83
2019-03-23T21:03:21.093Z,12.17
2019-03-23T21:06:08.883Z,13.13
2019-03-23T21:08:37.531Z,13.80
2019-03-23T21:11:25.492Z,14.37
2019-03-23T21:13:54.067Z,13.37
2019-03-23T21:16:41.866Z,13.10
2019-03-23T21:19:10.426Z,14.33
2019-03-23T21:21:58.137Z,13.50
2019-03-23T21:24:46.147Z,13.10
2019-03-23T21:27:34.072Z,18.33
2019-03-23T21:30:21.946Z,13.53
2019-03-23T21:33:09.893Z,13.43
2019-03-23T21:35:38.518Z,12.50
2019-03-23T21:38:26.325Z,13.50
2019-03-23T21:40:54.967Z,14.90
2019-03-23T21:43:42.839Z,12.37
2019-03-23T21:48:59.170Z,12.53
2019-03-23T21:51:27.760Z,12.93
2019-03-23T21:53:56.520Z,15.60
2019-03-23T21:56:44.437Z,13.67
2019-03-23T21:59:13.076Z,13.47
2019-03-23T22:02:02.065Z,14.30
2019-03-23T22:04:50.024Z,13.17
2019-03-23T22:07:18.682Z,14.97
2019-03-23T22:15:47.307Z,15.00
2019-03-23T22:21:25.393Z,13.60
2019-03-23T22:23:55.613Z,15.60
2019-03-23T22:26:24.152Z,15.73
2019-03-23T22:29:12.173Z,13.87
2019-03-23T22:31:40.931Z,14.13
2019-03-23T22:34:28.813Z,14.77
2019-03-23T22:40:24.941Z,12.60
2019-03-23T22:42:53.514Z,13.83
2019-03-23T22:45:22.181Z,15.23
2019-03-23T22:47:50.778Z,14.73
2019-03-23T22:50:39.087Z,13.73
2019-03-23T22:53:07.732Z,12.87
2019-03-23T22:55:36.315Z,15.83
2019-03-23T22:58:04.927Z,15.77
2019-03-23T23:00:53.427Z,14.10
2019-03-23T23:03:43.013Z,16.90
2019-03-23T23:06:31.349Z,14.03
2019-03-23T23:09:19.440Z,16.83
2019-03-23T23:11:48.082Z,15.37
2019-03-23T23:17:12.348Z,14.87
2019-03-23T23:19:43.142Z,15.33
2019-03-23T23:22:11.845Z,16.53
2019-03-23T23:24:40.478Z,16.33
2019-03-23T23:27:29.043Z,16.53
2019-03-23T23:30:19.003Z,16.47
2019-03-23T23:32:49.355Z,13.00
2019-03-23T23:35:18.061Z,14.83
2019-03-23T23:37:46.706Z,15.03
2019-03-23T23:43:09.619Z,15.87
2019-03-23T23:45:57.531Z,16.97
2019-03-23T23:48:51.196Z,16.70
2019-03-23T23:51:15.711Z,14.83
2019-03-23T23:53:44.752Z,15.03
2019-03-23T23:56:13.924Z,15.77
2019-03-23T23:58:42.708Z,16.70
